Braintree Highlands, Massachusetts
Current Conditions -  °F | °C
As of 3:53 PM on Sunday 23 Nov 2014 (Local Time) from KOWD Reporting Station
Clear Clear  
Wind Chill: 57°   Ceiling: Unl
Heat Index: 57°   Visibility: 10mi
Dew Point: 36°   Wind: 5mph
Humidity: 45%   Direction: 190°S
Pressure: 30.11"   Gusts: NA
Location:  42.2036°N, 71.0017°W
Report Text: KOWD 232053Z 19004KT 10SM CLR 14/02 A3011 RMK AO2 SLP196 T01390022 56002
Loading
Personal Weather Stations






























Interactive Weather Map New forecast layout! Learn more

10-Day Weather Forecast

Advertisements
Track Severe Weather on mobile